createdAt,value
2022-11-12T00:00:33.942Z,5.75
2022-11-12T00:03:03.952Z,5.71
2022-11-12T00:05:33.893Z,5.70
2022-11-12T00:08:03.145Z,5.61
2022-11-12T00:10:35.137Z,5.61
2022-11-12T00:13:05.865Z,5.61
2022-11-12T00:15:34.732Z,5.61
2022-11-12T00:18:05.475Z,5.61
2022-11-12T00:20:34.568Z,5.56
2022-11-12T00:23:04.457Z,5.54
2022-11-12T00:25:33.791Z,5.54
2022-11-12T00:28:07.924Z,5.51
2022-11-12T00:30:41.010Z,5.50
2022-11-12T00:33:12.266Z,5.46
2022-11-12T00:35:42.427Z,5.38
2022-11-12T00:38:12.522Z,5.41
2022-11-12T00:40:42.922Z,5.37
2022-11-12T00:43:13.666Z,5.36
2022-11-12T00:45:45.267Z,5.34
2022-11-12T00:48:15.771Z,5.34
2022-11-12T00:50:44.865Z,5.30
2022-11-12T00:53:15.006Z,5.25
2022-11-12T00:55:44.084Z,5.23
2022-11-12T00:58:13.165Z,5.22
2022-11-12T01:00:42.273Z,5.23
2022-11-12T01:03:15.359Z,5.22
2022-11-12T01:05:46.231Z,5.23
2022-11-12T01:08:15.379Z,5.20
2022-11-12T01:10:45.631Z,5.17
2022-11-12T01:13:16.086Z,5.16
2022-11-12T01:15:46.166Z,5.14
2022-11-12T01:18:17.085Z,5.13
2022-11-12T01:20:49.140Z,5.13
2022-11-12T01:23:18.725Z,5.12
2022-11-12T01:25:47.861Z,5.14
2022-11-12T01:28:16.847Z,5.12
2022-11-12T01:30:45.753Z,5.12
2022-11-12T01:33:14.333Z,5.12
2022-11-12T01:35:43.748Z,5.01
2022-11-12T01:38:15.379Z,5.03
2022-11-12T01:40:45.313Z,4.92
2022-11-12T01:43:14.654Z,4.98
2022-11-12T01:45:51.966Z,5.01
2022-11-12T01:48:31.160Z,5.01
2022-11-12T01:51:00.807Z,5.02
2022-11-12T01:53:37.646Z,5.03
2022-11-12T01:56:09.457Z,4.97
2022-11-12T01:58:41.679Z,4.94
2022-11-12T02:01:11.508Z,4.93
2022-11-12T02:03:41.057Z,4.97
2022-11-12T02:06:15.707Z,4.95
2022-11-12T02:08:47.326Z,4.88
2022-11-12T02:11:19.325Z,4.91
2022-11-12T02:14:00.933Z,4.86
2022-11-12T02:16:34.768Z,4.86
2022-11-12T02:19:06.358Z,4.92
2022-11-12T02:21:37.575Z,4.90
2022-11-12T02:24:38.101Z,4.86
2022-11-12T02:27:10.669Z,4.81
2022-11-12T02:29:46.457Z,4.81
2022-11-12T02:32:15.821Z,4.75
2022-11-12T02:34:45.958Z,4.74
2022-11-12T02:37:16.700Z,4.72
2022-11-12T02:39:46.813Z,4.75
2022-11-12T02:42:15.925Z,4.72
2022-11-12T02:44:46.390Z,4.68
2022-11-12T02:47:15.847Z,4.66
2022-11-12T02:49:46.028Z,4.62
2022-11-12T02:52:16.544Z,4.60
2022-11-12T02:54:46.898Z,4.59
2022-11-12T02:57:16.080Z,4.55
2022-11-12T02:59:46.134Z,4.51
2022-11-12T03:02:15.672Z,4.50
2022-11-12T03:04:49.393Z,4.49
2022-11-12T03:07:20.367Z,4.48
2022-11-12T03:09:50.299Z,4.46
2022-11-12T03:12:20.196Z,4.42
2022-11-12T03:14:49.765Z,4.45
2022-11-12T03:17:19.833Z,4.42
2022-11-12T03:19:49.288Z,4.40
2022-11-12T03:22:20.077Z,4.39
2022-11-12T03:24:49.035Z,4.40
2022-11-12T03:27:19.022Z,4.40
2022-11-12T03:29:49.594Z,4.38
2022-11-12T03:32:19.022Z,4.41
2022-11-12T03:34:49.616Z,4.37
2022-11-12T03:37:22.351Z,4.36
2022-11-12T03:39:51.927Z,4.30
2022-11-12T03:42:22.576Z,4.30
2022-11-12T03:44:52.734Z,4.28
2022-11-12T03:47:22.761Z,4.30
2022-11-12T03:49:51.564Z,4.33
2022-11-12T03:52:22.887Z,4.33
2022-11-12T03:54:51.923Z,4.32
2022-11-12T03:57:21.718Z,4.30
2022-11-12T03:59:50.944Z,4.26
2022-11-12T04:02:20.007Z,4.29
2022-11-12T04:05:07.872Z,4.21
2022-11-12T04:07:56.412Z,4.19
2022-11-12T04:10:26.339Z,4.14
2022-11-12T04:13:13.360Z,4.12
2022-11-12T04:15:42.740Z,4.12
2022-11-12T04:18:30.300Z,4.13
2022-11-12T04:21:18.261Z,4.09
2022-11-12T04:23:50.612Z,4.03
2022-11-12T04:26:24.688Z,4.03
2022-11-12T04:29:12.165Z,4.02
2022-11-12T04:31:41.665Z,4.00
2022-11-12T04:34:30.105Z,4.01
2022-11-12T04:36:59.309Z,4.02
2022-11-12T04:39:30.530Z,4.00
2022-11-12T04:42:16.938Z,3.98
2022-11-12T04:45:01.568Z,3.99
2022-11-12T04:47:35.437Z,4.00
2022-11-12T04:50:07.182Z,4.00
2022-11-12T04:52:36.781Z,3.93
2022-11-12T04:55:09.545Z,3.88
2022-11-12T04:57:40.310Z,3.83
2022-11-12T05:00:12.405Z,3.86
2022-11-12T05:02:42.904Z,3.91
2022-11-12T05:05:11.716Z,3.86
2022-11-12T05:07:41.131Z,3.74
2022-11-12T05:10:12.550Z,3.67
2022-11-12T05:12:42.236Z,3.74
2022-11-12T05:15:14.716Z,3.74
2022-11-12T05:17:45.463Z,3.67
2022-11-12T05:20:15.504Z,3.63
2022-11-12T05:22:59.143Z,3.65
2022-11-12T05:25:35.174Z,3.60
2022-11-12T05:28:07.235Z,3.59
2022-11-12T05:30:37.163Z,3.50
2022-11-12T05:33:07.027Z,3.42
2022-11-12T05:35:36.478Z,3.46
2022-11-12T05:38:06.583Z,3.38
2022-11-12T05:40:37.539Z,3.32
2022-11-12T05:43:07.252Z,3.36
2022-11-12T05:45:36.370Z,3.39
2022-11-12T05:48:06.382Z,3.43
2022-11-12T05:50:51.261Z,3.43
2022-11-12T05:53:25.062Z,3.31
2022-11-12T05:55:57.093Z,3.26
2022-11-12T05:58:27.503Z,3.20
2022-11-12T06:00:57.351Z,3.19
2022-11-12T06:03:26.733Z,3.15
2022-11-12T06:05:55.703Z,3.12
2022-11-12T06:08:25.004Z,3.17
2022-11-12T06:10:57.373Z,3.16
2022-11-12T06:13:27.895Z,3.20
2022-11-12T06:15:57.682Z,3.23
2022-11-12T06:18:27.256Z,3.27
2022-11-12T06:21:22.415Z,3.21
2022-11-12T06:23:57.097Z,3.23
2022-11-12T06:26:30.942Z,3.27
2022-11-12T06:29:00.916Z,3.25
2022-11-12T06:31:29.348Z,3.21
2022-11-12T06:33:58.909Z,3.15
2022-11-12T06:36:28.647Z,3.08
2022-11-12T06:38:58.448Z,3.03
2022-11-12T06:41:29.681Z,3.00
2022-11-12T06:43:59.780Z,3.08
2022-11-12T06:46:31.177Z,2.95
2022-11-12T06:49:01.281Z,2.97
2022-11-12T06:51:30.324Z,2.92
2022-11-12T06:54:00.313Z,2.95
2022-11-12T06:56:31.893Z,3.02
2022-11-12T06:59:01.480Z,3.03
2022-11-12T07:01:31.384Z,3.09
2022-11-12T07:04:00.461Z,3.14
2022-11-12T07:06:29.991Z,3.13
2022-11-12T07:09:00.086Z,3.19
2022-11-12T07:11:31.826Z,3.25
2022-11-12T07:14:00.939Z,3.27
2022-11-12T07:16:30.209Z,3.31
2022-11-12T07:19:00.873Z,3.33
2022-11-12T07:21:30.365Z,3.34
2022-11-12T07:23:59.913Z,3.33
2022-11-12T07:26:31.396Z,3.38
2022-11-12T07:29:00.461Z,3.39
2022-11-12T07:31:29.552Z,3.43
2022-11-12T07:33:59.233Z,3.45
2022-11-12T07:36:28.379Z,3.47
2022-11-12T07:38:56.991Z,3.44
2022-11-12T07:41:26.705Z,3.47
2022-11-12T07:43:57.734Z,3.41
2022-11-12T07:46:29.533Z,3.41
2022-11-12T07:48:58.078Z,3.44
2022-11-12T07:51:29.688Z,3.43
2022-11-12T07:54:00.902Z,3.47
2022-11-12T07:56:30.345Z,3.50
2022-11-12T07:59:01.686Z,3.56
2022-11-12T08:01:33.493Z,3.60
2022-11-12T08:04:04.783Z,3.69
2022-11-12T08:06:35.226Z,3.75
2022-11-12T08:09:09.074Z,3.82
2022-11-12T08:11:38.393Z,3.88
2022-11-12T08:14:09.535Z,3.89
2022-11-12T08:16:38.205Z,3.94
2022-11-12T08:19:07.313Z,3.98
2022-11-12T08:21:38.233Z,4.03
2022-11-12T08:24:08.792Z,4.06
2022-11-12T08:26:39.183Z,4.07
2022-11-12T08:29:10.400Z,4.11
2022-11-12T08:31:39.648Z,4.15
2022-11-12T08:34:22.371Z,4.14
2022-11-12T08:36:52.623Z,4.15
2022-11-12T08:39:22.696Z,4.14
2022-11-12T08:41:53.263Z,4.15
2022-11-12T08:44:24.453Z,4.16
2022-11-12T08:46:53.827Z,4.17
2022-11-12T08:49:23.338Z,4.22
2022-11-12T08:51:53.549Z,4.24
2022-11-12T08:54:22.747Z,4.25
2022-11-12T08:56:53.527Z,4.31
2022-11-12T08:59:23.453Z,4.32
2022-11-12T09:01:52.765Z,4.36
2022-11-12T09:04:21.917Z,4.38
2022-11-12T09:06:53.850Z,4.42
2022-11-12T09:09:24.148Z,4.45
2022-11-12T09:11:53.564Z,4.47
2022-11-12T09:14:24.214Z,4.52
2022-11-12T09:16:54.277Z,4.53
2022-11-12T09:19:23.457Z,4.60
2022-11-12T09:21:52.656Z,4.61
2022-11-12T09:24:21.150Z,4.66
2022-11-12T09:26:54.375Z,4.75
2022-11-12T09:29:24.974Z,4.79
2022-11-12T09:31:53.867Z,4.82
2022-11-12T09:34:23.810Z,4.86
2022-11-12T09:36:53.356Z,4.89
2022-11-12T09:39:22.108Z,4.91
2022-11-12T09:41:52.030Z,4.94
2022-11-12T09:44:24.520Z,4.98
2022-11-12T09:47:02.018Z,5.03
2022-11-12T09:49:37.555Z,5.05
2022-11-12T09:52:18.075Z,5.10
2022-11-12T09:54:54.125Z,5.16
2022-11-12T09:57:23.787Z,5.19
2022-11-12T09:59:55.201Z,5.20
2022-11-12T10:02:37.176Z,5.26
2022-11-12T10:05:26.767Z,5.30
2022-11-12T10:08:23.034Z,5.36
2022-11-12T10:11:03.408Z,5.39
2022-11-12T10:13:55.812Z,5.40
2022-11-12T10:16:50.734Z,5.45
2022-11-12T10:19:48.840Z,5.46
2022-11-12T10:22:42.074Z,5.50
2022-11-12T10:25:18.206Z,5.55
2022-11-12T10:27:48.363Z,5.61
2022-11-12T10:30:20.179Z,5.65
2022-11-12T10:32:54.652Z,5.68
2022-11-12T10:35:25.767Z,5.70
2022-11-12T10:38:03.375Z,5.73
2022-11-12T10:40:37.455Z,5.76
2022-11-12T10:43:23.073Z,5.80
2022-11-12T10:45:53.085Z,5.83
2022-11-12T10:48:34.089Z,5.88
2022-11-12T10:51:05.290Z,5.92
2022-11-12T10:53:39.200Z,5.96
2022-11-12T10:56:27.475Z,6.01
2022-11-12T10:59:18.697Z,6.08
2022-11-12T11:01:57.400Z,6.12
2022-11-12T11:04:35.974Z,6.17
2022-11-12T11:07:09.014Z,6.23
2022-11-12T11:09:38.467Z,6.27
2022-11-12T11:12:25.918Z,6.32
2022-11-12T11:15:09.615Z,6.31
2022-11-12T11:17:39.741Z,6.34
2022-11-12T11:20:25.299Z,6.41
2022-11-12T11:23:01.884Z,6.43
2022-11-12T11:25:35.349Z,6.45
2022-11-12T11:28:19.370Z,6.50
2022-11-12T11:31:03.278Z,6.56
2022-11-12T11:33:50.669Z,6.64
2022-11-12T11:36:34.973Z,6.66
2022-11-12T11:39:19.364Z,6.70
2022-11-12T11:42:08.734Z,6.73
2022-11-12T11:44:49.305Z,6.78
2022-11-12T11:47:59.555Z,6.84
2022-11-12T11:50:34.543Z,6.87
2022-11-12T11:53:22.632Z,6.89
2022-11-12T11:55:58.749Z,6.90
2022-11-12T11:59:16.450Z,6.94
2022-11-12T12:02:21.850Z,6.96
2022-11-12T12:04:59.659Z,6.99
2022-11-12T12:07:45.747Z,7.01
2022-11-12T12:10:40.190Z,7.05
2022-11-12T12:13:31.387Z,7.06
2022-11-12T12:16:41.005Z,7.12
2022-11-12T12:19:24.921Z,7.15
2022-11-12T12:21:57.819Z,7.19
2022-11-12T12:24:38.853Z,7.23
2022-11-12T12:27:17.128Z,7.27
2022-11-12T12:29:52.342Z,7.30
2022-11-12T12:32:30.070Z,7.34
2022-11-12T12:35:18.857Z,7.38
2022-11-12T12:37:58.020Z,7.43
2022-11-12T12:40:35.530Z,7.48
2022-11-12T12:43:18.895Z,7.50
2022-11-12T12:45:49.479Z,7.55
2022-11-12T12:48:24.803Z,7.58
2022-11-12T12:50:55.695Z,7.60
2022-11-12T12:53:36.408Z,7.66
2022-11-12T12:56:08.478Z,7.71
2022-11-12T12:58:46.938Z,7.76
2022-11-12T13:01:33.405Z,7.81
2022-11-12T13:04:05.216Z,7.85
2022-11-12T13:06:39.588Z,7.91
2022-11-12T13:09:25.815Z,7.95
2022-11-12T13:12:14.682Z,8.01
2022-11-12T13:15:40.073Z,8.06
2022-11-12T13:18:17.039Z,8.13
2022-11-12T13:21:11.729Z,8.19
2022-11-12T13:24:08.338Z,8.23
2022-11-12T13:26:58.033Z,8.29
2022-11-12T13:29:44.540Z,8.34
2022-11-12T13:32:39.436Z,8.38
2022-11-12T13:35:31.254Z,8.41
2022-11-12T13:38:04.369Z,8.44
2022-11-12T13:40:45.843Z,8.48
2022-11-12T13:43:38.031Z,8.52
2022-11-12T13:46:30.394Z,8.56
2022-11-12T13:49:08.833Z,8.59
2022-11-12T13:51:45.262Z,8.63
2022-11-12T13:54:37.235Z,8.66
2022-11-12T13:57:31.377Z,8.69
2022-11-12T14:00:22.719Z,8.72
2022-11-12T14:02:57.729Z,8.75
2022-11-12T14:05:32.501Z,8.78
2022-11-12T14:08:54.257Z,8.79
2022-11-12T14:12:04.076Z,8.82
2022-11-12T14:14:55.331Z,8.82
2022-11-12T14:17:38.712Z,8.83
2022-11-12T14:20:30.608Z,8.83
2022-11-12T14:23:10.731Z,8.85
2022-11-12T14:25:49.310Z,8.86
2022-11-12T14:28:29.718Z,8.86
2022-11-12T14:31:00.028Z,8.87
2022-11-12T14:33:32.025Z,8.87
2022-11-12T14:36:13.182Z,8.87
2022-11-12T14:38:48.682Z,8.87
2022-11-12T14:41:24.898Z,8.86
2022-11-12T14:44:11.450Z,8.85
2022-11-12T14:46:48.248Z,8.82
2022-11-12T14:49:43.873Z,8.81
2022-11-12T14:52:23.474Z,8.77
2022-11-12T14:54:56.978Z,8.78
2022-11-12T14:57:33.490Z,8.77
2022-11-12T15:00:21.210Z,8.76
2022-11-12T15:02:59.247Z,8.75
2022-11-12T15:05:31.352Z,8.73
2022-11-12T15:08:05.159Z,8.73
2022-11-12T15:10:38.979Z,8.70
2022-11-12T15:13:13.818Z,8.67
2022-11-12T15:15:53.892Z,8.65
2022-11-12T15:18:27.282Z,8.62
2022-11-12T15:21:17.475Z,8.56
2022-11-12T15:23:54.237Z,8.55
2022-11-12T15:26:34.818Z,8.52
2022-11-12T15:29:15.514Z,8.50
2022-11-12T15:31:47.983Z,8.45
2022-11-12T15:34:33.963Z,8.42
2022-11-12T15:37:08.455Z,8.37
2022-11-12T15:39:45.423Z,8.36
2022-11-12T15:42:23.218Z,8.33
2022-11-12T15:45:00.374Z,8.31
2022-11-12T15:47:30.358Z,8.24
2022-11-12T15:50:00.517Z,8.18
2022-11-12T15:52:29.346Z,8.13
2022-11-12T15:55:01.160Z,8.08
2022-11-12T15:57:35.790Z,8.01
2022-11-12T16:00:13.563Z,7.98
2022-11-12T16:02:43.805Z,7.89
2022-11-12T16:05:17.836Z,7.84
2022-11-12T16:07:47.287Z,7.75
2022-11-12T16:10:23.009Z,7.68
2022-11-12T16:13:00.197Z,7.62
2022-11-12T16:15:30.463Z,7.55
2022-11-12T16:18:00.333Z,7.46
2022-11-12T16:20:33.877Z,7.43
2022-11-12T16:23:03.690Z,7.41
2022-11-12T16:25:40.144Z,7.39
2022-11-12T16:28:15.738Z,7.36
2022-11-12T16:30:47.346Z,7.34
2022-11-12T16:33:17.802Z,7.33
2022-11-12T16:35:49.796Z,7.29
2022-11-12T16:38:19.669Z,7.28
2022-11-12T16:40:52.399Z,7.27
2022-11-12T16:43:23.358Z,7.27
2022-11-12T16:45:53.718Z,7.28
2022-11-12T16:48:26.090Z,7.28
2022-11-12T16:50:56.087Z,7.25
2022-11-12T16:53:25.928Z,7.19
2022-11-12T16:55:58.971Z,7.21
2022-11-12T16:58:29.321Z,7.22
2022-11-12T17:01:00.373Z,7.24
2022-11-12T17:03:30.035Z,7.25
2022-11-12T17:06:00.477Z,7.27
2022-11-12T17:08:33.891Z,7.27
2022-11-12T17:11:10.302Z,7.29
2022-11-12T17:13:40.357Z,7.30
2022-11-12T17:16:11.389Z,7.32
2022-11-12T17:18:43.000Z,7.31
2022-11-12T17:21:15.401Z,7.29
2022-11-12T17:23:44.980Z,7.25
2022-11-12T17:26:18.573Z,7.24
2022-11-12T17:28:55.536Z,7.25
2022-11-12T17:31:29.111Z,7.26
2022-11-12T17:33:58.019Z,7.26
2022-11-12T17:36:29.184Z,7.26
2022-11-12T17:39:01.642Z,7.24
2022-11-12T17:41:33.828Z,7.22
2022-11-12T17:44:04.007Z,7.23
2022-11-12T17:46:34.236Z,7.21
2022-11-12T17:49:04.202Z,7.17
2022-11-12T17:51:34.375Z,7.13
2022-11-12T17:54:03.668Z,7.15
2022-11-12T17:56:37.066Z,7.11
2022-11-12T17:59:12.089Z,7.06
2022-11-12T18:01:41.708Z,7.06
2022-11-12T18:04:12.921Z,7.06
2022-11-12T18:06:43.213Z,7.03
2022-11-12T18:09:16.841Z,7.05
2022-11-12T18:11:52.213Z,7.07
2022-11-12T18:14:23.144Z,7.06
2022-11-12T18:16:52.605Z,7.07
2022-11-12T18:19:22.445Z,7.07
2022-11-12T18:21:57.062Z,7.06
2022-11-12T18:24:26.343Z,7.06
2022-11-12T18:26:57.089Z,7.00
2022-11-12T18:29:26.594Z,7.02
2022-11-12T18:31:57.120Z,6.98
2022-11-12T18:34:27.036Z,6.98
2022-11-12T18:36:57.975Z,6.95
2022-11-12T18:39:26.872Z,6.92
2022-11-12T18:41:58.897Z,6.86
2022-11-12T18:44:29.102Z,6.84
2022-11-12T18:46:58.200Z,6.86
2022-11-12T18:49:27.140Z,6.82
2022-11-12T18:51:56.368Z,6.81
2022-11-12T18:54:26.928Z,6.78
2022-11-12T18:56:58.699Z,6.78
2022-11-12T18:59:30.867Z,6.79
2022-11-12T19:02:00.089Z,6.74
2022-11-12T19:04:30.321Z,6.72
2022-11-12T19:06:59.963Z,6.73
2022-11-12T19:09:28.816Z,6.74
2022-11-12T19:12:00.214Z,6.77
2022-11-12T19:14:28.776Z,6.77
2022-11-12T19:16:57.848Z,6.77
2022-11-12T19:19:27.957Z,6.76
2022-11-12T19:21:57.939Z,6.75
2022-11-12T19:24:26.696Z,6.73
2022-11-12T19:26:57.669Z,6.66
2022-11-12T19:29:26.226Z,6.63
2022-11-12T19:31:56.267Z,6.64
2022-11-12T19:34:25.778Z,6.63
2022-11-12T19:37:26.626Z,6.59
2022-11-12T19:39:45.607Z,6.57
2022-11-12T19:42:17.327Z,6.54
2022-11-12T19:44:46.523Z,6.43
2022-11-12T19:47:16.666Z,6.44
2022-11-12T19:49:46.721Z,6.44
2022-11-12T19:52:15.474Z,6.33
2022-11-12T19:54:44.236Z,6.29
2022-11-12T19:57:15.266Z,6.32
2022-11-12T19:59:44.734Z,6.32
2022-11-12T20:02:14.298Z,6.33
2022-11-12T20:04:43.830Z,6.33
2022-11-12T20:07:15.024Z,6.28
2022-11-12T20:09:44.733Z,6.26
2022-11-12T20:12:15.768Z,6.24
2022-11-12T20:14:45.787Z,6.19
2022-11-12T20:17:15.012Z,6.16
2022-11-12T20:19:44.633Z,6.16
2022-11-12T20:22:14.403Z,6.15
2022-11-12T20:24:43.822Z,6.14
2022-11-12T20:27:17.710Z,6.10
2022-11-12T20:29:46.794Z,5.99
2022-11-12T20:32:16.066Z,5.99
2022-11-12T20:34:46.256Z,6.01
2022-11-12T20:37:14.968Z,5.94
2022-11-12T20:39:45.820Z,5.87
2022-11-12T20:42:16.680Z,5.87
2022-11-12T20:44:45.914Z,5.81
2022-11-12T20:47:15.146Z,5.80
2022-11-12T20:49:43.914Z,5.83
2022-11-12T20:52:13.887Z,5.76
2022-11-12T20:54:43.223Z,5.76
2022-11-12T20:57:12.320Z,5.72
2022-11-12T20:59:44.017Z,5.75
2022-11-12T21:02:13.340Z,5.74
2022-11-12T21:04:44.047Z,5.73
2022-11-12T21:07:13.806Z,5.70
2022-11-12T21:09:43.629Z,5.67
2022-11-12T21:12:13.014Z,5.66
2022-11-12T21:14:49.068Z,5.69
2022-11-12T21:17:20.790Z,5.66
2022-11-12T21:19:50.029Z,5.62
2022-11-12T21:22:20.064Z,5.59
2022-11-12T21:24:50.574Z,5.45
2022-11-12T21:27:19.598Z,5.48
2022-11-12T21:29:51.810Z,5.45
2022-11-12T21:32:21.952Z,5.42
2022-11-12T21:34:51.495Z,5.40
2022-11-12T21:37:20.680Z,5.41
2022-11-12T21:39:50.469Z,5.42
2022-11-12T21:42:19.728Z,5.42
2022-11-12T21:44:50.538Z,5.42
2022-11-12T21:47:19.080Z,5.41
2022-11-12T21:49:48.076Z,5.40
2022-11-12T21:52:17.067Z,5.41
2022-11-12T21:54:47.129Z,5.38
2022-11-12T21:57:18.903Z,5.37
2022-11-12T21:59:49.826Z,5.35
2022-11-12T22:02:20.013Z,5.36
2022-11-12T22:04:49.469Z,5.34
2022-11-12T22:07:18.112Z,5.32
2022-11-12T22:09:49.433Z,5.31
2022-11-12T22:12:22.457Z,5.29
2022-11-12T22:14:54.541Z,5.28
2022-11-12T22:17:24.161Z,5.29
2022-11-12T22:19:55.913Z,5.29
2022-11-12T22:22:26.684Z,5.27
2022-11-12T22:24:56.078Z,5.23
2022-11-12T22:27:26.241Z,5.17
2022-11-12T22:29:56.565Z,5.10
2022-11-12T22:32:25.995Z,5.11
2022-11-12T22:34:55.032Z,5.07
2022-11-12T22:37:24.671Z,5.04
2022-11-12T22:39:54.446Z,5.03
2022-11-12T22:42:23.531Z,5.01
2022-11-12T22:44:54.127Z,5.01
2022-11-12T22:47:24.375Z,4.98
2022-11-12T22:49:53.444Z,5.01
2022-11-12T22:52:23.148Z,4.93
2022-11-12T22:54:52.031Z,4.88
2022-11-12T22:57:21.400Z,4.88
2022-11-12T22:59:51.579Z,4.89
2022-11-12T23:02:21.392Z,4.90
2022-11-12T23:04:52.499Z,4.90
2022-11-12T23:07:21.133Z,4.87
2022-11-12T23:09:51.021Z,4.87
2022-11-12T23:12:20.523Z,4.88
2022-11-12T23:14:49.654Z,4.87
2022-11-12T23:17:18.687Z,4.88
2022-11-12T23:19:48.605Z,4.89
2022-11-12T23:22:19.444Z,4.88
2022-11-12T23:24:49.316Z,4.92
2022-11-12T23:27:18.159Z,4.89
2022-11-12T23:29:47.714Z,4.91
2022-11-12T23:32:16.105Z,4.91
2022-11-12T23:34:45.370Z,4.92
2022-11-12T23:37:14.571Z,4.93
2022-11-12T23:39:45.358Z,4.91
2022-11-12T23:42:14.391Z,4.92
2022-11-12T23:44:45.401Z,4.93
2022-11-12T23:47:15.521Z,4.93
2022-11-12T23:49:44.449Z,4.93
2022-11-12T23:52:13.492Z,4.94
2022-11-12T23:54:42.856Z,4.93
2022-11-12T23:57:12.670Z,4.95
2022-11-12T23:59:42.049Z,4.92
